createdAt,value
2023-02-13T00:02:47.569Z,21.73
2023-02-13T00:05:51.387Z,19.97
2023-02-13T00:08:56.682Z,20.37
2023-02-13T00:12:00.498Z,25.00
2023-02-13T00:15:04.809Z,20.37
2023-02-13T00:18:08.435Z,23.87
2023-02-13T00:21:14.181Z,24.97
2023-02-13T00:24:19.325Z,21.03
2023-02-13T00:27:23.464Z,23.47
2023-02-13T00:30:27.253Z,22.17
2023-02-13T00:33:31.279Z,26.53
2023-02-13T00:36:35.500Z,20.93
2023-02-13T00:39:40.669Z,20.90
2023-02-13T00:42:44.375Z,21.77
2023-02-13T00:45:48.037Z,21.60
2023-02-13T00:48:51.635Z,25.67
2023-02-13T00:51:55.388Z,23.93
2023-02-13T00:55:01.035Z,23.00
2023-02-13T00:58:04.781Z,23.30
2023-02-13T01:01:08.579Z,21.17
2023-02-13T01:04:12.228Z,20.80
2023-02-13T01:07:16.797Z,24.23
2023-02-13T01:10:22.619Z,21.63
2023-02-13T01:13:26.435Z,24.83
2023-02-13T01:16:30.716Z,21.90
2023-02-13T01:19:34.533Z,21.93
2023-02-13T01:22:38.280Z,22.40
2023-02-13T01:25:44.278Z,21.57
2023-02-13T01:28:48.285Z,22.87
2023-02-13T01:31:52.203Z,22.43
2023-02-13T01:34:55.873Z,20.80
2023-02-13T01:37:59.532Z,20.00
2023-02-13T01:41:04.760Z,25.23
2023-02-13T01:44:41.966Z,25.50
2023-02-13T01:47:49.524Z,23.70
2023-02-13T01:50:59.112Z,27.83
2023-02-13T01:54:06.006Z,30.87
2023-02-13T01:57:16.569Z,27.90
2023-02-13T02:00:21.254Z,25.07
2023-02-13T02:03:29.054Z,30.57
2023-02-13T02:06:40.352Z,34.37
2023-02-13T02:09:46.784Z,29.13
2023-02-13T02:13:00.203Z,30.83
2023-02-13T02:16:05.359Z,25.57
2023-02-13T02:19:16.246Z,27.70
2023-02-13T02:23:00.362Z,30.13
2023-02-13T02:26:43.802Z,30.30
2023-02-13T02:30:20.595Z,31.07
2023-02-13T02:33:35.760Z,33.50
2023-02-13T02:36:58.525Z,31.10
2023-02-13T02:40:19.681Z,26.57
2023-02-13T02:43:39.840Z,33.07
2023-02-13T02:47:09.316Z,29.70
2023-02-13T02:50:41.200Z,30.57
2023-02-13T02:53:51.967Z,33.83
2023-02-13T02:57:02.191Z,37.53
2023-02-13T03:00:24.858Z,33.60
2023-02-13T03:03:47.594Z,33.47
2023-02-13T03:06:57.967Z,39.90
2023-02-13T03:10:22.397Z,48.03
2023-02-13T03:13:40.546Z,42.00
2023-02-13T03:17:02.079Z,34.23
2023-02-13T03:20:36.465Z,33.20
2023-02-13T03:23:52.915Z,33.33
2023-02-13T03:27:05.175Z,47.93
2023-02-13T03:30:18.550Z,32.80
2023-02-13T03:33:41.948Z,32.80
2023-02-13T03:37:07.527Z,31.43
2023-02-13T03:40:17.710Z,33.20
2023-02-13T03:43:21.934Z,32.77
2023-02-13T03:46:28.099Z,33.00
2023-02-13T03:50:09.215Z,32.90
2023-02-13T03:53:16.116Z,30.53
2023-02-13T03:56:40.774Z,32.07
2023-02-13T03:59:44.538Z,31.63
2023-02-13T04:02:57.404Z,34.80
2023-02-13T04:06:06.295Z,32.40
2023-02-13T04:09:10.042Z,31.67
2023-02-13T04:12:20.468Z,35.60
2023-02-13T04:15:30.359Z,45.37
2023-02-13T04:18:35.612Z,34.97
2023-02-13T04:21:41.601Z,56.57
2023-02-13T04:24:45.232Z,40.17
2023-02-13T04:27:50.227Z,40.27
2023-02-13T04:30:54.077Z,38.77
2023-02-13T04:33:58.036Z,35.87
2023-02-13T04:37:01.612Z,39.30
2023-02-13T04:40:05.877Z,41.70
2023-02-13T04:43:11.054Z,43.20
2023-02-13T04:46:14.638Z,41.83
2023-02-13T04:49:18.166Z,38.77
2023-02-13T04:52:21.646Z,38.47
2023-02-13T04:55:25.734Z,46.80
2023-02-13T04:58:30.882Z,45.53
2023-02-13T05:01:34.588Z,38.63
2023-02-13T05:04:38.294Z,37.40
2023-02-13T05:07:43.026Z,37.33
2023-02-13T05:10:46.578Z,43.20
2023-02-13T05:13:51.651Z,40.53
2023-02-13T05:16:55.274Z,45.60
2023-02-13T05:19:59.503Z,53.47
2023-02-13T05:23:20.470Z,51.73
2023-02-13T05:26:24.078Z,51.23
2023-02-13T05:29:29.247Z,56.20
2023-02-13T05:32:32.817Z,53.93
2023-02-13T05:35:36.410Z,57.97
2023-02-13T05:38:41.455Z,53.37
2023-02-13T05:41:45.781Z,45.80
2023-02-13T05:44:50.909Z,59.27
2023-02-13T05:47:54.528Z,48.23
2023-02-13T05:50:58.466Z,51.47
2023-02-13T05:54:02.262Z,54.90
2023-02-13T05:57:06.398Z,56.10
2023-02-13T06:00:12.941Z,46.73
2023-02-13T06:03:16.778Z,44.70
2023-02-13T06:06:20.688Z,45.57
2023-02-13T06:09:24.714Z,42.57
2023-02-13T06:12:28.558Z,45.03
2023-02-13T06:15:33.759Z,44.77
2023-02-13T06:18:37.811Z,40.80
2023-02-13T06:21:41.613Z,41.37
2023-02-13T06:24:45.422Z,46.27
2023-02-13T06:27:49.736Z,49.03
2023-02-13T06:30:55.590Z,44.90
2023-02-13T06:33:59.647Z,40.93
2023-02-13T06:37:03.404Z,37.53
2023-02-13T06:40:08.694Z,51.03
2023-02-13T06:43:12.484Z,46.87
2023-02-13T06:46:17.843Z,42.10
2023-02-13T06:49:21.734Z,53.33
2023-02-13T06:52:25.743Z,44.93
2023-02-13T06:55:29.761Z,43.57
2023-02-13T06:58:34.233Z,40.77
2023-02-13T07:01:39.452Z,42.13
2023-02-13T07:04:43.264Z,44.70
2023-02-13T07:07:47.132Z,46.43
2023-02-13T07:10:50.845Z,42.00
2023-02-13T07:13:54.586Z,40.50
2023-02-13T07:17:00.165Z,47.70
2023-02-13T07:20:04.743Z,50.07
2023-02-13T07:23:08.615Z,53.13
2023-02-13T07:26:12.585Z,57.57
2023-02-13T07:29:16.345Z,54.23
2023-02-13T07:32:21.826Z,49.27
2023-02-13T07:35:25.595Z,46.53
2023-02-13T07:38:29.388Z,48.57
2023-02-13T07:41:33.135Z,45.67
2023-02-13T07:44:37.017Z,56.83
2023-02-13T07:47:42.349Z,48.03
2023-02-13T07:50:46.115Z,51.80
2023-02-13T07:53:50.012Z,50.73
2023-02-13T07:56:53.823Z,41.20
2023-02-13T07:59:57.665Z,38.70
2023-02-13T08:03:03.531Z,36.60
2023-02-13T08:06:08.872Z,44.10
2023-02-13T08:09:39.581Z,43.80
2023-02-13T08:12:44.423Z,47.60
2023-02-13T08:15:48.397Z,46.30
2023-02-13T08:18:53.722Z,49.17
2023-02-13T08:21:57.964Z,42.60
2023-02-13T08:25:01.771Z,44.97
2023-02-13T08:28:06.002Z,47.73
2023-02-13T08:31:12.756Z,43.80
2023-02-13T08:34:18.031Z,46.43
2023-02-13T08:37:21.809Z,32.33
2023-02-13T08:40:26.097Z,37.20
2023-02-13T08:43:29.880Z,36.83
2023-02-13T08:46:33.691Z,36.17
2023-02-13T08:49:38.828Z,38.17
2023-02-13T08:52:42.608Z,36.27
2023-02-13T08:55:53.869Z,36.33
2023-02-13T08:58:57.622Z,39.13
2023-02-13T09:02:01.611Z,43.63
2023-02-13T09:05:07.474Z,40.00
2023-02-13T09:08:13.912Z,40.67
2023-02-13T09:11:17.710Z,39.93
2023-02-13T09:14:22.218Z,49.10
2023-02-13T09:17:27.111Z,47.23
2023-02-13T09:20:32.274Z,40.63
2023-02-13T09:23:37.533Z,45.80
2023-02-13T09:26:41.378Z,45.13
2023-02-13T09:29:45.239Z,43.33
2023-02-13T09:32:53.636Z,45.90
2023-02-13T09:35:59.179Z,46.00
2023-02-13T09:39:03.302Z,41.10
2023-02-13T09:42:17.166Z,44.47
2023-02-13T09:45:22.636Z,45.63
2023-02-13T09:48:31.248Z,42.47
2023-02-13T09:51:37.194Z,42.63
2023-02-13T09:54:40.915Z,43.27
2023-02-13T09:57:49.134Z,45.07
2023-02-13T10:00:58.759Z,42.00
2023-02-13T10:04:29.079Z,56.40
2023-02-13T10:07:42.044Z,42.43
2023-02-13T10:10:53.519Z,41.77
2023-02-13T10:14:07.385Z,43.63
2023-02-13T10:17:16.527Z,45.97
2023-02-13T10:20:30.045Z,39.90
2023-02-13T10:23:43.995Z,38.53
2023-02-13T10:26:48.926Z,41.23
2023-02-13T10:30:07.568Z,36.90
2023-02-13T10:33:21.191Z,37.83
2023-02-13T10:36:29.269Z,40.47
2023-02-13T10:39:34.556Z,34.87
2023-02-13T10:42:46.490Z,30.73
2023-02-13T10:46:11.971Z,29.03
2023-02-13T10:49:36.378Z,31.17
2023-02-13T10:52:51.688Z,32.30
2023-02-13T10:56:13.178Z,33.97
2023-02-13T10:59:32.454Z,28.87
2023-02-13T11:02:37.335Z,26.93
2023-02-13T11:05:42.727Z,31.13
2023-02-13T11:08:49.263Z,30.40
2023-02-13T11:11:55.158Z,30.87
2023-02-13T11:15:00.568Z,30.87
2023-02-13T11:18:18.327Z,29.30
2023-02-13T11:21:25.200Z,26.70
2023-02-13T11:24:31.378Z,31.43
2023-02-13T11:27:39.955Z,27.03
2023-02-13T11:30:43.939Z,25.53
2023-02-13T11:33:47.969Z,24.20
2023-02-13T11:36:54.086Z,24.37
2023-02-13T11:40:00.264Z,25.43
2023-02-13T11:43:09.470Z,24.93
2023-02-13T11:46:20.391Z,23.43
2023-02-13T11:49:25.883Z,25.87
2023-02-13T11:52:31.153Z,22.50
2023-02-13T11:55:38.390Z,23.60
2023-02-13T11:58:44.411Z,21.93
2023-02-13T12:01:50.644Z,23.73
2023-02-13T12:04:56.105Z,19.60
2023-02-13T12:08:02.311Z,22.93
2023-02-13T12:11:16.392Z,16.80
2023-02-13T12:14:23.758Z,16.60
2023-02-13T12:17:32.660Z,17.40
2023-02-13T12:20:47.805Z,16.33
2023-02-13T12:23:59.381Z,20.03
2023-02-13T12:27:16.452Z,16.80
2023-02-13T12:30:40.453Z,16.60
2023-02-13T12:34:25.693Z,18.83
2023-02-13T12:37:44.546Z,18.23
2023-02-13T12:41:07.721Z,15.90
2023-02-13T12:44:31.661Z,16.77
2023-02-13T12:47:45.735Z,19.00
2023-02-13T12:51:04.487Z,16.83
2023-02-13T12:54:25.407Z,17.33
2023-02-13T12:57:47.072Z,16.37
2023-02-13T13:01:03.073Z,16.07
2023-02-13T13:04:18.447Z,23.60
2023-02-13T13:07:49.687Z,17.63
2023-02-13T13:11:04.153Z,16.47
2023-02-13T13:14:15.868Z,16.63
2023-02-13T13:17:33.983Z,13.80
2023-02-13T13:21:00.169Z,12.53
2023-02-13T13:24:11.497Z,11.97
2023-02-13T13:27:22.582Z,12.73
2023-02-13T13:30:30.444Z,12.60
2023-02-13T13:33:36.243Z,16.57
2023-02-13T13:36:50.068Z,11.10
2023-02-13T13:39:59.051Z,11.07
2023-02-13T13:43:09.842Z,10.67
2023-02-13T13:46:20.398Z,11.33
2023-02-13T13:49:36.610Z,11.23
2023-02-13T13:52:41.927Z,20.70
2023-02-13T13:56:08.907Z,11.33
2023-02-13T13:59:19.861Z,10.33
2023-02-13T14:02:44.246Z,11.47
2023-02-13T14:06:03.519Z,12.17
2023-02-13T14:09:29.638Z,11.97
2023-02-13T14:12:48.107Z,15.47
2023-02-13T14:15:55.384Z,14.90
2023-02-13T14:18:59.322Z,11.90
2023-02-13T14:22:32.655Z,11.43
2023-02-13T14:25:38.844Z,11.67
2023-02-13T14:28:44.292Z,13.70
2023-02-13T14:32:01.559Z,11.93
2023-02-13T14:35:17.841Z,14.07
2023-02-13T14:38:26.481Z,11.30
2023-02-13T14:41:59.153Z,12.17
2023-02-13T14:45:05.612Z,16.10
2023-02-13T14:48:15.450Z,12.13
2023-02-13T14:51:29.011Z,12.27
2023-02-13T14:54:35.884Z,14.20
2023-02-13T14:57:45.545Z,15.13
2023-02-13T15:00:56.785Z,13.37
2023-02-13T15:04:07.111Z,13.90
2023-02-13T15:07:17.483Z,12.67
2023-02-13T15:10:35.578Z,16.17
2023-02-13T15:13:41.281Z,16.10
2023-02-13T15:16:47.707Z,16.50
2023-02-13T15:19:54.362Z,15.90
2023-02-13T15:22:59.397Z,17.47
2023-02-13T15:26:05.225Z,58.57
2023-02-13T15:29:27.866Z,81.40
2023-02-13T15:32:37.173Z,22.37
2023-02-13T15:35:41.256Z,25.13
2023-02-13T15:38:45.073Z,33.27
2023-02-13T15:41:52.072Z,27.73
2023-02-13T15:44:59.844Z,21.80
2023-02-13T15:48:03.780Z,30.20
2023-02-13T15:51:07.745Z,23.03
2023-02-13T15:54:25.775Z,20.33
2023-02-13T15:57:30.305Z,37.30
2023-02-13T16:00:38.193Z,37.67
2023-02-13T16:03:44.977Z,52.50
2023-02-13T16:06:50.906Z,32.73
2023-02-13T16:10:17.696Z,46.87
2023-02-13T16:13:21.540Z,45.47
2023-02-13T16:16:27.679Z,42.03
2023-02-13T16:19:36.639Z,70.13
2023-02-13T16:22:45.855Z,26.60
2023-02-13T16:25:50.251Z,35.83
2023-02-13T16:28:55.973Z,33.77
2023-02-13T16:32:14.207Z,28.37
2023-02-13T16:35:28.313Z,29.47
2023-02-13T16:38:35.956Z,40.53
2023-02-13T16:41:39.885Z,56.70
2023-02-13T16:44:43.766Z,36.30
2023-02-13T16:47:49.077Z,35.27
2023-02-13T16:50:57.413Z,37.23
2023-02-13T16:54:02.624Z,39.53
2023-02-13T16:57:18.973Z,38.53
2023-02-13T17:00:27.958Z,41.17
2023-02-13T17:03:34.536Z,49.77
2023-02-13T17:06:38.588Z,42.20
2023-02-13T17:09:42.424Z,41.10
2023-02-13T17:12:47.098Z,44.27
2023-02-13T17:15:52.128Z,42.90
2023-02-13T17:18:57.447Z,41.33
2023-02-13T17:22:01.346Z,39.17
2023-02-13T17:25:08.422Z,33.80
2023-02-13T17:28:15.848Z,31.50
2023-02-13T17:31:19.777Z,33.63
2023-02-13T17:34:25.067Z,35.57
2023-02-13T17:37:30.209Z,28.93
2023-02-13T17:40:34.066Z,25.03
2023-02-13T17:43:37.921Z,26.67
2023-02-13T17:46:42.122Z,22.43
2023-02-13T17:49:47.975Z,28.03
2023-02-13T17:52:51.982Z,23.40
2023-02-13T17:55:55.815Z,26.30
2023-02-13T17:58:59.630Z,26.70
2023-02-13T18:02:03.558Z,26.30
2023-02-13T18:05:09.915Z,22.27
2023-02-13T18:08:13.675Z,23.33
2023-02-13T18:11:17.405Z,25.10
2023-02-13T18:14:21.209Z,25.20
2023-02-13T18:17:24.953Z,24.93
2023-02-13T18:20:30.245Z,21.13
2023-02-13T18:23:34.063Z,24.67
2023-02-13T18:26:37.910Z,21.43
2023-02-13T18:29:41.711Z,21.43
2023-02-13T18:32:45.517Z,21.77
2023-02-13T18:35:50.813Z,28.47
2023-02-13T18:38:54.679Z,25.53
2023-02-13T18:41:58.564Z,32.17
2023-02-13T18:45:02.333Z,27.23
2023-02-13T18:48:08.905Z,25.97
2023-02-13T18:51:39.117Z,23.20
2023-02-13T18:54:42.908Z,25.03
2023-02-13T18:57:46.705Z,26.50
2023-02-13T19:00:50.548Z,30.17
2023-02-13T19:03:55.688Z,34.57
2023-02-13T19:07:00.916Z,107.20
2023-02-13T19:10:04.916Z,65.43
2023-02-13T19:13:08.696Z,140.47
2023-02-13T19:16:15.786Z,23.33
2023-02-13T19:19:19.649Z,28.00
2023-02-13T19:22:24.917Z,25.13
2023-02-13T19:25:28.766Z,28.47
2023-02-13T19:28:32.587Z,28.20
2023-02-13T19:31:36.729Z,29.13
2023-02-13T19:34:40.527Z,26.33
2023-02-13T19:37:45.841Z,23.00
2023-02-13T19:40:49.646Z,23.27
2023-02-13T19:43:53.856Z,24.10
2023-02-13T19:46:57.798Z,21.30
2023-02-13T19:50:01.606Z,27.97
2023-02-13T19:53:07.980Z,25.53
2023-02-13T19:56:14.498Z,31.93
2023-02-13T19:59:18.359Z,28.23
2023-02-13T20:02:22.669Z,33.63
2023-02-13T20:05:26.467Z,33.47
2023-02-13T20:08:31.794Z,41.17
2023-02-13T20:11:35.785Z,36.77
2023-02-13T20:14:39.547Z,37.33
2023-02-13T20:17:43.284Z,33.90
2023-02-13T20:20:47.086Z,35.17
2023-02-13T20:23:53.426Z,35.20
2023-02-13T20:26:59.162Z,40.30
2023-02-13T20:30:06.829Z,45.60
2023-02-13T20:33:11.636Z,38.83
2023-02-13T20:36:17.056Z,39.10
2023-02-13T20:39:22.385Z,32.37
2023-02-13T20:42:26.408Z,37.90
2023-02-13T20:45:30.189Z,39.87
2023-02-13T20:48:36.118Z,38.60
2023-02-13T20:51:40.351Z,36.50
2023-02-13T20:54:45.692Z,31.80
2023-02-13T20:57:49.491Z,38.97
2023-02-13T21:00:53.347Z,41.57
2023-02-13T21:03:58.091Z,31.93
2023-02-13T21:07:01.913Z,37.77
2023-02-13T21:10:08.344Z,33.93
2023-02-13T21:13:12.247Z,33.43
2023-02-13T21:16:18.028Z,37.83
2023-02-13T21:19:22.309Z,35.67
2023-02-13T21:22:26.187Z,31.40
2023-02-13T21:25:31.419Z,34.23
2023-02-13T21:28:35.950Z,29.30
2023-02-13T21:31:44.434Z,27.23
2023-02-13T21:34:48.313Z,34.30
2023-02-13T21:37:52.137Z,31.33
2023-02-13T21:40:57.953Z,30.97
2023-02-13T21:44:01.910Z,28.33
2023-02-13T21:47:07.175Z,27.50
2023-02-13T21:50:11.708Z,29.63
2023-02-13T21:53:15.500Z,28.43
2023-02-13T21:56:22.218Z,26.30
2023-02-13T21:59:26.059Z,25.90
2023-02-13T22:02:30.020Z,26.20
2023-02-13T22:05:33.903Z,31.27
2023-02-13T22:08:37.827Z,29.87
2023-02-13T22:11:43.536Z,29.03
2023-02-13T22:14:47.279Z,26.90
2023-02-13T22:17:51.145Z,29.67
2023-02-13T22:20:55.575Z,33.13
2023-02-13T22:23:59.932Z,42.17
2023-02-13T22:27:05.434Z,34.63
2023-02-13T22:30:10.088Z,45.07
2023-02-13T22:33:13.905Z,33.57
2023-02-13T22:36:22.313Z,30.80
2023-02-13T22:39:26.346Z,29.10
2023-02-13T22:42:31.930Z,27.70
2023-02-13T22:45:36.445Z,28.37
2023-02-13T22:48:41.042Z,24.90
2023-02-13T22:51:44.745Z,24.60
2023-02-13T22:54:48.602Z,22.23
2023-02-13T22:57:54.637Z,22.00
2023-02-13T23:00:58.607Z,17.47
2023-02-13T23:04:02.618Z,18.40
2023-02-13T23:07:06.387Z,19.23
2023-02-13T23:10:10.663Z,19.27
2023-02-13T23:13:14.948Z,23.90
2023-02-13T23:16:18.841Z,22.67
2023-02-13T23:19:22.085Z,22.30
2023-02-13T23:22:25.897Z,21.33
2023-02-13T23:25:29.665Z,23.53
2023-02-13T23:28:35.097Z,22.20
2023-02-13T23:31:39.106Z,21.53
2023-02-13T23:34:42.986Z,23.47
2023-02-13T23:37:46.728Z,21.27
2023-02-13T23:40:50.498Z,23.90
2023-02-13T23:43:55.903Z,22.97
2023-02-13T23:46:59.595Z,22.47
2023-02-13T23:50:03.354Z,20.57
2023-02-13T23:53:06.932Z,18.37
2023-02-13T23:56:10.788Z,16.53
2023-02-13T23:59:17.594Z,19.00
